createdAt,value
2023-03-06T06:03:09.213Z,462.00
2023-03-06T06:04:10.118Z,462.00
2023-03-06T06:05:12.553Z,459.00
2023-03-06T06:06:10.160Z,457.00
2023-03-06T06:07:10.141Z,457.00
2023-03-06T06:08:10.144Z,457.00
2023-03-06T06:09:11.741Z,456.00
2023-03-06T06:10:10.137Z,457.00
2023-03-06T06:11:09.110Z,458.00
2023-03-06T06:12:10.114Z,459.00
2023-03-06T06:13:10.142Z,460.00
2023-03-06T06:14:10.097Z,461.00
2023-03-06T06:15:10.104Z,460.00
2023-03-06T06:16:10.158Z,460.00
2023-03-06T06:17:10.084Z,462.00
2023-03-06T06:18:10.084Z,463.00
2023-03-06T06:19:10.107Z,464.00
2023-03-06T06:20:10.058Z,463.00
2023-03-06T06:21:10.064Z,465.00
2023-03-06T06:22:10.053Z,468.00
2023-03-06T06:23:09.055Z,470.00
2023-03-06T06:24:10.032Z,470.00
2023-03-06T06:25:10.033Z,469.00
2023-03-06T06:26:09.030Z,468.00
2023-03-06T06:27:09.035Z,466.00
2023-03-06T06:28:10.027Z,465.00
2023-03-06T06:29:10.008Z,463.00
2023-03-06T06:30:09.071Z,464.00
2023-03-06T06:31:10.156Z,464.00
2023-03-06T06:32:10.214Z,465.00
2023-03-06T06:33:10.232Z,466.00
2023-03-06T06:34:10.276Z,466.00
2023-03-06T06:35:10.363Z,468.00
2023-03-06T06:36:10.389Z,470.00
2023-03-06T06:37:10.437Z,470.00
2023-03-06T06:38:10.505Z,472.00
2023-03-06T06:39:10.537Z,473.00
2023-03-06T06:40:10.597Z,472.00
2023-03-06T06:41:38.927Z,474.00
2023-03-06T06:42:29.891Z,472.00
2023-03-06T06:43:10.644Z,472.00
2023-03-06T06:44:10.626Z,472.00
2023-03-06T06:45:10.618Z,475.00
2023-03-06T06:46:44.644Z,477.00
2023-03-06T06:47:22.959Z,479.00
2023-03-06T06:48:10.693Z,481.00
2023-03-06T06:49:09.656Z,483.00
2023-03-06T06:50:10.595Z,481.00
2023-03-06T06:51:10.616Z,482.00
2023-03-06T06:52:09.578Z,483.00
2023-03-06T06:53:10.571Z,486.00
2023-03-06T06:54:10.543Z,485.00
2023-03-06T06:55:10.538Z,488.00
2023-03-06T06:56:10.528Z,490.00
2023-03-06T06:57:10.540Z,490.00
2023-03-06T06:58:09.526Z,487.00
2023-03-06T06:59:16.576Z,487.00
2023-03-06T07:00:10.507Z,489.00
2023-03-06T07:01:10.525Z,488.00
2023-03-06T07:02:10.510Z,487.00
2023-03-06T07:03:09.495Z,490.00
2023-03-06T07:04:10.590Z,556.00
2023-03-06T07:05:10.480Z,614.00
2023-03-06T07:06:10.473Z,624.00
2023-03-06T07:07:09.479Z,621.00
2023-03-06T07:08:10.466Z,627.00
2023-03-06T07:09:09.456Z,632.00
2023-03-06T07:10:09.455Z,643.00
2023-03-06T07:11:10.441Z,698.00
2023-03-06T07:12:10.441Z,704.00
2023-03-06T07:13:10.437Z,713.00
2023-03-06T07:14:10.447Z,718.00
2023-03-06T07:15:10.428Z,728.00
2023-03-06T07:16:10.454Z,741.00
2023-03-06T07:17:10.393Z,750.00
2023-03-06T07:18:09.421Z,785.00
2023-03-06T07:19:10.380Z,796.00
2023-03-06T07:20:10.402Z,796.00
2023-03-06T07:21:10.401Z,866.00
2023-03-06T07:22:10.378Z,834.00
2023-03-06T07:23:09.393Z,844.00
2023-03-06T07:24:10.341Z,853.00
2023-03-06T07:25:09.344Z,854.00
2023-03-06T07:26:10.327Z,860.00
2023-03-06T07:27:10.348Z,868.00
2023-03-06T07:28:10.397Z,928.00
2023-03-06T07:29:09.316Z,918.00
2023-03-06T07:30:10.323Z,939.00
2023-03-06T07:31:10.342Z,938.00
2023-03-06T07:32:10.315Z,938.00
2023-03-06T07:33:10.313Z,947.00
2023-03-06T07:34:10.274Z,974.00
2023-03-06T07:35:19.644Z,965.00
2023-03-06T07:36:12.729Z,968.00
2023-03-06T07:37:10.260Z,970.00
2023-03-06T07:38:10.330Z,976.00
2023-03-06T07:39:10.303Z,1058.00
2023-03-06T07:40:10.235Z,1046.00
2023-03-06T07:42:10.237Z,1008.00
2023-03-06T07:43:19.112Z,1048.00
2023-03-06T07:44:10.214Z,1071.00
2023-03-06T07:45:10.235Z,1079.00
2023-03-06T07:46:10.261Z,1081.00
2023-03-06T07:47:10.202Z,1085.00
2023-03-06T07:48:10.187Z,1088.00
2023-03-06T07:49:10.179Z,1094.00
2023-03-06T07:50:09.179Z,1094.00
2023-03-06T07:51:10.168Z,1161.00
2023-03-06T07:57:10.135Z,1102.00
2023-03-06T07:58:09.374Z,1117.00
2023-03-06T08:03:09.160Z,1166.00
2023-03-06T08:07:10.045Z,1224.00
2023-03-06T08:08:10.055Z,1231.00
2023-03-06T08:10:10.024Z,1258.00
2023-03-06T08:11:10.058Z,1268.00
2023-03-06T08:12:10.009Z,1274.00
2023-03-06T08:14:09.990Z,1283.00
2023-03-06T08:21:09.078Z,1306.00
2023-03-06T08:22:10.101Z,1305.00
2023-03-06T08:25:09.199Z,1326.00
2023-03-06T08:29:10.273Z,1355.00
2023-03-06T08:32:10.345Z,1371.00
2023-03-06T08:33:10.370Z,1432.00
2023-03-06T08:38:09.477Z,1483.00
2023-03-06T08:39:09.505Z,1497.00
2023-03-06T08:49:09.692Z,1523.00
2023-03-06T08:55:09.955Z,1451.00
2023-03-06T09:02:10.420Z,1398.00
2023-03-06T09:41:12.384Z,1274.00
2023-03-06T09:42:12.386Z,1271.00
2023-03-06T09:45:12.371Z,1259.00
2023-03-06T10:42:11.452Z,1145.00
2023-03-06T11:59:12.582Z,1038.00
2023-03-06T12:10:11.568Z,1021.00
2023-03-06T12:17:12.545Z,997.00
2023-03-06T12:29:12.521Z,988.00
2023-03-06T12:36:11.481Z,980.00
2023-03-06T12:41:12.476Z,972.00
2023-03-06T12:42:22.624Z,969.00
2023-03-06T12:46:12.532Z,970.00
2023-03-06T12:49:17.801Z,956.00
2023-03-06T12:56:12.397Z,951.00
2023-03-06T13:00:12.369Z,947.00
2023-03-06T13:08:12.317Z,942.00
2023-03-06T13:09:12.339Z,941.00
2023-03-06T13:12:12.287Z,935.00
2023-03-06T13:14:12.258Z,932.00
2023-03-06T14:11:11.873Z,816.00
2023-03-06T14:14:11.854Z,814.00
2023-03-06T14:16:11.975Z,813.00
2023-03-06T14:19:11.949Z,811.00
2023-03-06T14:22:11.815Z,813.00
2023-03-06T14:23:11.801Z,811.00
2023-03-06T14:26:11.798Z,813.00
2023-03-06T14:34:10.753Z,805.00
2023-03-06T14:47:11.769Z,752.00
2023-03-06T14:57:12.051Z,674.00
2023-03-06T14:59:11.117Z,661.00
2023-03-06T15:03:11.250Z,648.00
2023-03-06T15:04:12.244Z,647.00
2023-03-06T15:05:12.313Z,644.00
2023-03-06T15:09:12.420Z,625.00
2023-03-06T15:11:12.480Z,612.00
2023-03-06T15:13:12.535Z,607.00
2023-03-06T15:19:11.782Z,581.00
2023-03-06T15:22:12.925Z,544.00
2023-03-06T15:26:12.183Z,562.00
2023-03-06T15:27:12.233Z,568.00
2023-03-06T15:28:13.279Z,572.00
2023-03-06T15:30:13.406Z,580.00
2023-03-06T15:44:13.885Z,604.00
2023-03-06T15:45:13.906Z,607.00
2023-03-06T15:49:14.020Z,606.00
2023-03-06T16:28:15.374Z,746.00
2023-03-06T16:29:15.383Z,754.00
